createdAt,value
2023-05-08T00:01:06.226Z,11.40
2023-05-08T00:03:33.775Z,12.30
2023-05-08T00:06:01.561Z,14.30
2023-05-08T00:08:28.415Z,14.55
2023-05-08T00:10:55.624Z,13.52
2023-05-08T00:13:22.907Z,13.67
2023-05-08T00:15:50.304Z,17.00
2023-05-08T00:18:17.590Z,13.43
2023-05-08T00:20:44.579Z,13.20
2023-05-08T00:23:11.366Z,11.48
2023-05-08T00:25:38.552Z,12.20
2023-05-08T00:28:06.117Z,11.50
2023-05-08T00:30:33.406Z,11.25
2023-05-08T00:33:00.635Z,11.70
2023-05-08T00:35:27.532Z,10.80
2023-05-08T00:37:54.760Z,12.37
2023-05-08T00:40:21.648Z,12.65
2023-05-08T00:42:48.842Z,11.27
2023-05-08T00:45:16.050Z,13.05
2023-05-08T00:47:43.560Z,14.30
2023-05-08T00:50:11.049Z,13.20
2023-05-08T00:52:38.484Z,14.23
2023-05-08T00:55:06.569Z,15.27
2023-05-08T00:57:37.876Z,14.25
2023-05-08T01:00:05.888Z,13.25
2023-05-08T01:02:33.422Z,13.53
2023-05-08T01:05:00.921Z,13.98
2023-05-08T01:07:28.178Z,13.65
2023-05-08T01:09:55.453Z,14.25
2023-05-08T01:12:22.992Z,16.88
2023-05-08T01:15:00.583Z,14.30
2023-05-08T01:17:45.930Z,14.05
2023-05-08T01:20:39.717Z,14.18
2023-05-08T01:23:27.639Z,13.00
2023-05-08T01:26:28.515Z,13.15
2023-05-08T01:29:10.318Z,11.87
2023-05-08T01:31:37.603Z,13.55
2023-05-08T01:34:19.791Z,14.35
2023-05-08T01:36:53.158Z,12.93
2023-05-08T01:39:51.202Z,18.08
2023-05-08T01:42:33.927Z,15.33
2023-05-08T01:45:05.609Z,17.08
2023-05-08T01:47:38.164Z,16.10
2023-05-08T01:50:14.660Z,14.63
2023-05-08T01:52:46.871Z,13.15
2023-05-08T01:55:20.300Z,20.40
2023-05-08T01:57:54.175Z,16.08
2023-05-08T02:00:23.409Z,15.25
2023-05-08T02:02:52.353Z,17.20
2023-05-08T02:05:22.545Z,20.05
2023-05-08T02:07:51.077Z,17.13
2023-05-08T02:10:20.063Z,17.23
2023-05-08T02:12:48.419Z,17.27
2023-05-08T02:15:17.381Z,15.48
2023-05-08T02:17:48.537Z,16.67
2023-05-08T02:20:16.399Z,18.17
2023-05-08T02:22:45.901Z,18.10
2023-05-08T02:25:14.880Z,26.15
2023-05-08T02:27:45.623Z,27.75
2023-05-08T02:30:15.175Z,25.33
2023-05-08T02:32:47.993Z,29.13
2023-05-08T02:35:19.964Z,42.58
2023-05-08T02:37:55.516Z,44.83
2023-05-08T02:40:24.792Z,57.90
2023-05-08T02:42:52.103Z,78.97
2023-05-08T02:45:19.917Z,39.23
2023-05-08T02:48:19.971Z,68.05
2023-05-08T02:51:02.873Z,28.25
2023-05-08T02:53:35.955Z,28.45
2023-05-08T02:56:16.729Z,37.38
2023-05-08T02:58:52.766Z,28.87
2023-05-08T03:01:43.136Z,27.92
2023-05-08T03:04:12.699Z,50.05
2023-05-08T03:06:44.524Z,38.90
2023-05-08T03:09:18.681Z,87.28
2023-05-08T03:11:49.650Z,34.67
2023-05-08T03:14:22.618Z,60.20
2023-05-08T03:16:52.441Z,64.18
2023-05-08T03:19:30.327Z,50.33
2023-05-08T03:22:00.663Z,67.88
2023-05-08T03:24:29.446Z,68.07
2023-05-08T03:26:59.111Z,47.70
2023-05-08T03:29:26.823Z,44.90
2023-05-08T03:31:57.069Z,22.02
2023-05-08T03:34:24.590Z,23.77
2023-05-08T03:36:52.943Z,23.30
2023-05-08T03:39:20.396Z,22.08
2023-05-08T03:41:49.630Z,20.67
2023-05-08T03:44:18.483Z,19.65
2023-05-08T03:46:47.611Z,22.35
2023-05-08T03:49:15.229Z,26.10
2023-05-08T03:51:43.203Z,21.83
2023-05-08T03:54:10.862Z,22.38
2023-05-08T03:56:37.665Z,23.88
2023-05-08T03:59:14.210Z,25.83
2023-05-08T04:02:03.074Z,21.50
2023-05-08T04:04:44.557Z,27.92
2023-05-08T04:07:39.444Z,29.60
2023-05-08T04:10:21.646Z,44.38
2023-05-08T04:13:15.978Z,49.72
2023-05-08T04:15:56.686Z,56.90
2023-05-08T04:18:29.177Z,29.80
2023-05-08T04:21:00.064Z,44.17
2023-05-08T04:23:29.816Z,43.70
2023-05-08T04:25:57.316Z,39.95
2023-05-08T04:28:24.731Z,30.93
2023-05-08T04:30:52.352Z,23.88
2023-05-08T04:33:19.925Z,28.60
2023-05-08T04:35:47.420Z,25.58
2023-05-08T04:38:15.021Z,17.65
2023-05-08T04:40:42.475Z,26.17
2023-05-08T04:43:11.104Z,22.10
2023-05-08T04:45:39.137Z,22.08
2023-05-08T04:48:06.310Z,21.98
2023-05-08T04:50:33.165Z,21.70
2023-05-08T04:53:00.492Z,19.87
2023-05-08T04:55:27.378Z,21.02
2023-05-08T04:57:54.723Z,20.50
2023-05-08T05:00:21.619Z,15.27
2023-05-08T05:02:49.328Z,18.60
2023-05-08T05:05:16.555Z,19.57
2023-05-08T05:07:43.792Z,19.77
2023-05-08T05:10:12.099Z,18.23
2023-05-08T05:12:39.420Z,19.02
2023-05-08T05:15:06.992Z,16.73
2023-05-08T05:17:36.620Z,17.83
2023-05-08T05:20:05.798Z,17.75
2023-05-08T05:22:33.312Z,18.08
2023-05-08T05:25:00.776Z,21.65
2023-05-08T05:27:28.935Z,18.80
2023-05-08T05:29:56.004Z,20.87
2023-05-08T05:32:22.875Z,18.65
2023-05-08T05:34:50.270Z,23.88
2023-05-08T05:37:17.594Z,19.67
2023-05-08T05:39:45.063Z,18.35
2023-05-08T05:42:12.538Z,16.33
2023-05-08T05:44:39.458Z,17.02
2023-05-08T05:47:10.168Z,17.63
2023-05-08T05:49:39.622Z,17.55
2023-05-08T05:52:06.873Z,16.90
2023-05-08T05:54:34.194Z,16.67
2023-05-08T05:57:01.707Z,20.50
2023-05-08T05:59:29.118Z,17.17
2023-05-08T06:01:56.560Z,18.70
2023-05-08T06:04:23.569Z,17.83
2023-05-08T06:06:50.957Z,17.33
2023-05-08T06:09:18.189Z,18.58
2023-05-08T06:11:45.057Z,18.58
2023-05-08T06:14:12.431Z,21.08
2023-05-08T06:16:40.621Z,18.20
2023-05-08T06:19:08.089Z,18.97
2023-05-08T06:21:35.290Z,18.67
2023-05-08T06:24:03.201Z,21.10
2023-05-08T06:26:30.444Z,20.33
2023-05-08T06:28:57.667Z,18.00
2023-05-08T06:31:25.290Z,17.73
2023-05-08T06:33:52.125Z,18.73
2023-05-08T06:36:19.420Z,18.23
2023-05-08T06:38:46.629Z,22.60
2023-05-08T06:41:15.296Z,20.85
2023-05-08T06:43:43.036Z,23.20
2023-05-08T06:46:10.021Z,27.77
2023-05-08T06:48:36.953Z,21.05
2023-05-08T06:51:04.514Z,23.52
2023-05-08T06:53:31.782Z,24.35
2023-05-08T06:55:58.860Z,22.63
2023-05-08T06:58:25.879Z,32.47
2023-05-08T07:00:53.263Z,26.23
2023-05-08T07:03:20.547Z,24.98
2023-05-08T07:05:47.790Z,23.67
2023-05-08T07:08:14.852Z,27.30
2023-05-08T07:10:42.119Z,28.88
2023-05-08T07:13:09.342Z,29.15
2023-05-08T07:15:36.683Z,29.20
2023-05-08T07:18:03.995Z,33.38
2023-05-08T07:20:31.361Z,28.40
2023-05-08T07:22:58.182Z,33.13
2023-05-08T07:25:25.222Z,34.55
2023-05-08T07:27:52.116Z,31.63
2023-05-08T07:30:19.415Z,29.42
2023-05-08T07:32:46.865Z,28.83
2023-05-08T07:35:15.487Z,28.33
2023-05-08T07:37:43.186Z,30.63
2023-05-08T07:40:10.554Z,34.88
2023-05-08T07:42:44.365Z,33.30
2023-05-08T07:45:13.386Z,34.00
2023-05-08T07:47:50.509Z,39.42
2023-05-08T07:50:17.929Z,44.95
2023-05-08T07:52:46.497Z,37.33
2023-05-08T07:55:15.046Z,35.85
2023-05-08T07:57:43.893Z,38.37
2023-05-08T08:00:15.572Z,36.47
2023-05-08T08:02:44.951Z,36.08
2023-05-08T08:05:12.734Z,32.88
2023-05-08T08:07:40.319Z,38.72
2023-05-08T08:10:07.955Z,34.20
2023-05-08T08:12:35.001Z,42.78
2023-05-08T08:15:01.946Z,39.15
2023-05-08T08:17:29.467Z,36.85
2023-05-08T08:19:57.205Z,40.72
2023-05-08T08:22:25.441Z,40.00
2023-05-08T08:24:55.342Z,38.55
2023-05-08T08:27:23.118Z,41.72
2023-05-08T08:29:52.593Z,37.92
2023-05-08T08:32:25.830Z,42.70
2023-05-08T08:34:52.988Z,41.20
2023-05-08T08:37:20.401Z,40.55
2023-05-08T08:39:48.503Z,41.08
2023-05-08T08:42:15.623Z,41.22
2023-05-08T08:44:42.799Z,43.95
2023-05-08T08:47:12.734Z,44.23
2023-05-08T08:49:47.377Z,45.38
2023-05-08T08:52:31.775Z,42.28
2023-05-08T08:55:02.628Z,43.55
2023-05-08T08:57:34.049Z,46.03
2023-05-08T09:00:05.420Z,43.77
2023-05-08T09:02:33.066Z,58.28
2023-05-08T09:05:00.714Z,50.00
2023-05-08T09:07:30.046Z,53.95
2023-05-08T09:09:57.462Z,50.65
2023-05-08T09:12:24.749Z,58.73
2023-05-08T09:14:51.870Z,59.13
2023-05-08T09:17:18.770Z,60.63
2023-05-08T09:19:48.060Z,58.95
2023-05-08T09:22:15.357Z,55.92
2023-05-08T09:24:59.103Z,60.13
2023-05-08T09:27:28.072Z,61.47
2023-05-08T09:30:02.329Z,61.95
2023-05-08T09:32:30.890Z,63.53
2023-05-08T09:34:58.423Z,64.10
2023-05-08T09:37:26.172Z,70.77
2023-05-08T09:39:53.811Z,66.53
2023-05-08T09:42:21.101Z,69.75
2023-05-08T09:44:52.909Z,67.43
2023-05-08T09:47:24.337Z,71.05
2023-05-08T09:50:06.152Z,73.60
2023-05-08T09:52:34.172Z,72.15
2023-05-08T09:55:04.888Z,67.07
2023-05-08T09:57:39.215Z,68.70
2023-05-08T10:00:13.187Z,70.72
2023-05-08T10:02:42.526Z,69.07
2023-05-08T10:05:31.863Z,74.55
2023-05-08T10:08:18.194Z,63.75
2023-05-08T10:10:45.942Z,67.72
2023-05-08T10:13:13.088Z,67.75
2023-05-08T10:15:43.860Z,75.47
2023-05-08T10:18:12.225Z,67.85
2023-05-08T10:20:40.940Z,75.75
2023-05-08T10:23:11.673Z,71.90
2023-05-08T10:25:46.275Z,73.68
2023-05-08T10:28:15.028Z,73.80
2023-05-08T10:30:47.457Z,74.25
2023-05-08T10:33:16.033Z,73.88
2023-05-08T10:35:43.365Z,76.20
2023-05-08T10:38:11.278Z,72.53
2023-05-08T10:40:38.506Z,74.17
2023-05-08T10:43:07.638Z,74.63
2023-05-08T10:45:35.483Z,78.75
2023-05-08T10:48:02.699Z,69.90
2023-05-08T10:51:06.138Z,72.78
2023-05-08T10:53:40.936Z,75.23
2023-05-08T10:56:07.972Z,76.90
2023-05-08T10:58:39.137Z,75.47
2023-05-08T11:01:09.184Z,74.50
2023-05-08T11:03:44.269Z,71.05
2023-05-08T11:06:12.082Z,70.77
2023-05-08T11:08:53.106Z,72.38
2023-05-08T11:11:38.134Z,76.43
2023-05-08T11:14:05.398Z,81.15
2023-05-08T11:16:59.884Z,75.97
2023-05-08T11:19:27.919Z,69.95
2023-05-08T11:22:12.661Z,70.38
2023-05-08T11:24:50.273Z,69.53
2023-05-08T11:27:17.502Z,68.97
2023-05-08T11:29:45.151Z,70.25
2023-05-08T11:32:12.283Z,63.80
2023-05-08T11:34:46.100Z,69.75
2023-05-08T11:37:24.188Z,68.28
2023-05-08T11:39:51.413Z,60.15
2023-05-08T11:42:27.755Z,57.45
2023-05-08T11:45:13.685Z,57.07
2023-05-08T11:47:42.845Z,61.08
2023-05-08T11:50:12.100Z,58.25
2023-05-08T11:52:41.680Z,49.35
2023-05-08T11:55:11.013Z,55.80
2023-05-08T11:57:38.433Z,53.10
2023-05-08T12:00:10.818Z,53.63
2023-05-08T12:02:42.567Z,54.85
2023-05-08T12:05:11.223Z,45.53
2023-05-08T12:07:48.143Z,46.72
2023-05-08T12:10:16.669Z,50.87
2023-05-08T12:12:45.251Z,51.60
2023-05-08T12:15:15.084Z,47.92
2023-05-08T12:17:42.918Z,43.55
2023-05-08T12:20:18.293Z,43.83
2023-05-08T12:22:52.813Z,48.77
2023-05-08T12:25:20.714Z,50.17
2023-05-08T12:27:48.689Z,48.45
2023-05-08T12:30:16.871Z,45.90
2023-05-08T12:32:44.519Z,43.17
2023-05-08T12:35:13.050Z,45.23
2023-05-08T12:37:40.868Z,42.58
2023-05-08T12:40:22.638Z,41.97
2023-05-08T12:42:50.832Z,45.42
2023-05-08T12:45:18.493Z,51.55
2023-05-08T12:47:50.319Z,45.40
2023-05-08T12:50:18.818Z,40.00
2023-05-08T12:52:45.975Z,45.95
2023-05-08T12:55:31.754Z,39.25
2023-05-08T12:58:15.069Z,44.47
2023-05-08T13:00:51.898Z,40.40
2023-05-08T13:03:27.077Z,43.38
2023-05-08T13:05:56.236Z,44.97
2023-05-08T13:08:34.347Z,39.95
2023-05-08T13:11:03.276Z,37.65
2023-05-08T13:13:32.802Z,41.27
2023-05-08T13:16:06.838Z,42.30
2023-05-08T13:18:36.667Z,43.78
2023-05-08T13:21:03.804Z,39.70
2023-05-08T13:23:31.482Z,43.78
2023-05-08T13:25:58.409Z,40.60
2023-05-08T13:28:25.373Z,40.58
2023-05-08T13:30:52.229Z,40.78
2023-05-08T13:33:19.179Z,41.25
2023-05-08T13:35:46.434Z,42.33
2023-05-08T13:38:13.309Z,36.93
2023-05-08T13:40:40.750Z,40.17
2023-05-08T13:43:08.006Z,41.95
2023-05-08T13:45:35.181Z,38.75
2023-05-08T13:48:02.238Z,42.45
2023-05-08T13:50:29.633Z,36.30
2023-05-08T13:52:56.502Z,37.60
2023-05-08T13:55:23.846Z,38.60
2023-05-08T13:57:51.565Z,36.33
2023-05-08T14:00:18.849Z,37.30
2023-05-08T14:02:46.044Z,40.63
2023-05-08T14:05:13.495Z,37.20
2023-05-08T14:07:40.925Z,33.83
2023-05-08T14:10:08.804Z,35.05
2023-05-08T14:12:36.279Z,38.25
2023-05-08T14:15:07.116Z,37.43
2023-05-08T14:17:34.073Z,37.38
2023-05-08T14:20:01.116Z,39.25
2023-05-08T14:22:28.614Z,35.88
2023-05-08T14:24:55.970Z,41.33
2023-05-08T14:27:22.808Z,42.93
2023-05-08T14:29:50.084Z,40.42
2023-05-08T14:32:17.429Z,40.33
2023-05-08T14:34:44.945Z,36.30
2023-05-08T14:37:13.118Z,40.95
2023-05-08T14:39:40.076Z,38.67
2023-05-08T14:44:37.316Z,38.25
2023-05-08T14:47:04.951Z,37.05
2023-05-08T14:49:38.200Z,40.47
2023-05-08T14:52:06.933Z,34.60
2023-05-08T14:54:34.321Z,35.40
2023-05-08T14:57:01.592Z,34.67
2023-05-08T14:59:28.643Z,37.42
2023-05-08T15:01:55.570Z,37.72
2023-05-08T15:04:22.679Z,36.07
2023-05-08T15:06:49.621Z,39.70
2023-05-08T15:09:17.162Z,39.78
2023-05-08T15:11:44.419Z,38.05
2023-05-08T15:14:11.386Z,36.05
2023-05-08T15:16:38.388Z,40.00
2023-05-08T15:19:05.413Z,39.15
2023-05-08T15:21:32.241Z,35.97
2023-05-08T15:23:59.395Z,38.53
2023-05-08T15:26:26.638Z,37.88
2023-05-08T15:28:54.018Z,35.73
2023-05-08T15:31:21.976Z,41.17
2023-05-08T15:33:49.038Z,39.92
2023-05-08T15:36:16.598Z,41.00
2023-05-08T15:38:43.902Z,44.22
2023-05-08T15:41:15.007Z,38.50
2023-05-08T15:43:45.094Z,42.15
2023-05-08T15:46:12.188Z,45.05
2023-05-08T15:48:39.520Z,48.60
2023-05-08T15:51:06.763Z,43.55
2023-05-08T15:53:34.310Z,50.37
2023-05-08T15:56:01.333Z,51.78
2023-05-08T15:58:28.601Z,55.10
2023-05-08T16:00:56.882Z,50.92
2023-05-08T16:03:24.240Z,51.78
2023-05-08T16:05:51.707Z,53.97
2023-05-08T16:08:19.097Z,54.03
2023-05-08T16:10:46.585Z,57.08
2023-05-08T16:13:13.830Z,61.28
2023-05-08T16:15:41.206Z,68.30
2023-05-08T16:18:08.695Z,77.17
2023-05-08T16:20:36.513Z,78.97
2023-05-08T16:23:03.584Z,88.82
2023-05-08T16:25:30.483Z,88.43
2023-05-08T16:27:57.355Z,92.68
2023-05-08T16:30:24.223Z,85.77
2023-05-08T16:32:51.610Z,92.30
2023-05-08T16:35:19.575Z,102.47
2023-05-08T16:37:46.855Z,96.45
2023-05-08T16:40:13.902Z,93.13
2023-05-08T16:42:40.857Z,94.90
2023-05-08T16:45:08.857Z,88.20
2023-05-08T16:47:36.481Z,84.75
2023-05-08T16:50:04.683Z,85.00
2023-05-08T16:52:33.118Z,82.18
2023-05-08T16:55:00.535Z,83.43
2023-05-08T16:57:28.045Z,79.88
2023-05-08T16:59:55.312Z,72.97
2023-05-08T17:02:23.029Z,73.32
2023-05-08T17:04:50.501Z,73.93
2023-05-08T17:07:18.128Z,67.77
2023-05-08T17:09:45.786Z,64.47
2023-05-08T17:12:13.299Z,63.83
2023-05-08T17:14:42.746Z,59.67
2023-05-08T17:17:10.019Z,61.67
2023-05-08T17:19:37.339Z,58.47
2023-05-08T17:22:04.201Z,61.08
2023-05-08T17:24:32.381Z,61.67
2023-05-08T17:26:59.970Z,63.55
2023-05-08T17:29:27.318Z,57.35
2023-05-08T17:31:54.255Z,52.17
2023-05-08T17:34:22.757Z,55.03
2023-05-08T17:36:50.291Z,55.47
2023-05-08T17:39:20.058Z,49.00
2023-05-08T17:41:49.302Z,47.35
2023-05-08T17:44:16.900Z,45.33
2023-05-08T17:46:44.938Z,42.30
2023-05-08T17:49:13.032Z,46.67
2023-05-08T17:51:41.496Z,41.30
2023-05-08T17:54:08.916Z,40.92
2023-05-08T17:56:35.760Z,39.00
2023-05-08T17:59:02.617Z,45.58
2023-05-08T18:01:30.028Z,47.33
2023-05-08T18:03:57.575Z,46.78
2023-05-08T18:06:25.003Z,42.72
2023-05-08T18:08:52.450Z,42.90
2023-05-08T18:11:21.402Z,40.47
2023-05-08T18:13:49.038Z,43.70
2023-05-08T18:16:17.967Z,41.53
2023-05-08T18:18:45.124Z,40.63
2023-05-08T18:21:12.361Z,37.70
2023-05-08T18:23:39.777Z,37.38
2023-05-08T18:26:07.321Z,37.83
2023-05-08T18:28:36.244Z,44.47
2023-05-08T18:31:03.769Z,42.80
2023-05-08T18:33:31.119Z,41.37
2023-05-08T18:35:58.381Z,42.00
2023-05-08T18:38:25.685Z,41.30
2023-05-08T18:40:53.049Z,43.88
2023-05-08T18:43:20.499Z,39.72
2023-05-08T18:45:47.726Z,39.20
2023-05-08T18:48:15.256Z,33.30
2023-05-08T18:50:42.489Z,39.60
2023-05-08T18:53:10.478Z,38.67
2023-05-08T18:55:37.728Z,33.08
2023-05-08T18:58:06.306Z,35.27
2023-05-08T19:00:33.694Z,37.22
2023-05-08T19:03:01.193Z,36.45
2023-05-08T19:05:28.923Z,36.80
2023-05-08T19:07:56.122Z,38.25
2023-05-08T19:10:23.021Z,35.33
2023-05-08T19:12:50.729Z,43.33
2023-05-08T19:15:18.190Z,38.78
2023-05-08T19:17:45.743Z,37.45
2023-05-08T19:20:13.566Z,33.63
2023-05-08T19:22:41.069Z,40.23
2023-05-08T19:25:08.319Z,37.13
2023-05-08T19:27:35.655Z,37.47
2023-05-08T19:30:03.423Z,36.50
2023-05-08T19:32:30.741Z,36.90
2023-05-08T19:34:57.707Z,36.57
2023-05-08T19:37:25.045Z,35.10
2023-05-08T19:39:52.284Z,38.30
2023-05-08T19:42:19.772Z,36.95
2023-05-08T19:44:47.038Z,39.10
2023-05-08T19:47:14.083Z,34.67
2023-05-08T19:49:41.499Z,41.28
2023-05-08T19:52:08.915Z,44.03
2023-05-08T19:54:36.480Z,40.13
2023-05-08T19:57:03.722Z,42.95
2023-05-08T19:59:30.963Z,41.20
2023-05-08T20:01:58.332Z,39.13
2023-05-08T20:04:25.757Z,40.42
2023-05-08T20:06:52.943Z,39.65
2023-05-08T20:09:20.290Z,39.08
2023-05-08T20:11:47.131Z,49.77
2023-05-08T20:14:14.452Z,42.20
2023-05-08T20:16:42.044Z,41.95
2023-05-08T20:19:09.544Z,46.05
2023-05-08T20:21:36.812Z,42.90
2023-05-08T20:24:03.923Z,55.50
2023-05-08T20:26:31.334Z,43.92
2023-05-08T20:28:59.001Z,47.10
2023-05-08T20:31:27.882Z,46.35
2023-05-08T20:33:55.234Z,50.72
2023-05-08T20:36:22.714Z,47.80
2023-05-08T20:38:49.987Z,45.88
2023-05-08T20:41:17.643Z,48.60
2023-05-08T20:43:45.296Z,44.42
2023-05-08T20:46:12.221Z,47.38
2023-05-08T20:48:39.212Z,49.83
2023-05-08T20:51:06.180Z,42.72
2023-05-08T20:53:33.431Z,52.83
2023-05-08T20:56:04.812Z,52.90
2023-05-08T20:58:31.936Z,54.95
2023-05-08T21:00:59.373Z,51.50
2023-05-08T21:03:26.988Z,43.33
2023-05-08T21:05:55.234Z,54.65
2023-05-08T21:08:23.795Z,46.90
2023-05-08T21:10:51.867Z,52.28
2023-05-08T21:13:19.475Z,47.47
2023-05-08T21:15:49.869Z,52.75
2023-05-08T21:18:17.028Z,48.95
2023-05-08T21:20:49.997Z,46.83
2023-05-08T21:23:18.019Z,52.42
2023-05-08T21:25:51.143Z,51.53
2023-05-08T21:28:18.018Z,52.67
2023-05-08T21:30:45.632Z,51.88
2023-05-08T21:33:16.246Z,50.80
2023-05-08T21:35:43.815Z,46.72
2023-05-08T21:38:14.268Z,50.83
2023-05-08T21:40:41.513Z,52.20
2023-05-08T21:43:08.477Z,57.70
2023-05-08T21:45:35.536Z,42.40
2023-05-08T21:48:03.280Z,34.28
2023-05-08T21:50:30.370Z,37.70
2023-05-08T21:52:57.836Z,37.08
2023-05-08T21:55:25.246Z,61.85
2023-05-08T21:57:53.796Z,40.20
2023-05-08T22:00:21.069Z,47.17
2023-05-08T22:02:48.611Z,44.60
2023-05-08T22:05:16.176Z,42.75
2023-05-08T22:07:43.244Z,49.53
2023-05-08T22:10:11.554Z,46.55
2023-05-08T22:12:39.049Z,52.42
2023-05-08T22:15:14.899Z,44.47
2023-05-08T22:17:45.650Z,48.97
2023-05-08T22:20:14.848Z,49.97
2023-05-08T22:22:42.366Z,39.67
2023-05-08T22:25:09.695Z,42.05
2023-05-08T22:27:36.490Z,49.63
2023-05-08T22:30:03.772Z,53.88
2023-05-08T22:32:31.561Z,51.75
2023-05-08T22:34:58.812Z,42.67
2023-05-08T22:37:26.228Z,44.83
2023-05-08T22:39:53.434Z,52.80
2023-05-08T22:42:20.755Z,37.95
2023-05-08T22:44:48.269Z,45.00
2023-05-08T22:47:15.500Z,42.10
2023-05-08T22:49:42.803Z,45.67
2023-05-08T22:52:10.067Z,51.00
2023-05-08T22:54:37.444Z,46.20
2023-05-08T22:57:04.882Z,52.40
2023-05-08T22:59:32.114Z,53.78
2023-05-08T23:01:59.344Z,53.63
2023-05-08T23:04:26.397Z,50.13
2023-05-08T23:06:53.180Z,49.90
2023-05-08T23:09:20.174Z,54.35
2023-05-08T23:11:47.452Z,47.20
2023-05-08T23:14:14.782Z,48.67
2023-05-08T23:16:41.697Z,53.47
2023-05-08T23:19:09.975Z,52.90
2023-05-08T23:21:37.172Z,47.38
2023-05-08T23:26:48.633Z,40.33
2023-05-08T23:29:15.626Z,52.73
2023-05-08T23:31:42.847Z,49.53
2023-05-08T23:34:09.771Z,44.65
2023-05-08T23:36:36.575Z,48.25
2023-05-08T23:39:04.113Z,55.15
2023-05-08T23:41:30.900Z,57.70
2023-05-08T23:43:59.110Z,55.80
2023-05-08T23:46:26.005Z,49.63
2023-05-08T23:48:53.331Z,61.97
2023-05-08T23:51:29.561Z,54.72
2023-05-08T23:53:57.020Z,57.67
2023-05-08T23:56:24.919Z,58.55
2023-05-08T23:58:52.093Z,60.90
